sensor_id;sensor_type;location;lat;lon;timestamp;pressure;altitude;pressure_sealevel;temperature;humidity
69982;BME280;57319;56.274;43.980;2022-12-18T00:01:22;99707.19;;;-5.13;nan
69982;BME280;57319;56.274;43.980;2022-12-18T00:03:48;99695.28;;;-5.17;nan
69982;BME280;57319;56.274;43.980;2022-12-18T00:06:15;99670.28;;;-5.15;nan
69982;BME280;57319;56.274;43.980;2022-12-18T00:08:41;99670.44;;;-5.12;nan
69982;BME280;57319;56.274;43.980;2022-12-18T00:11:10;99671.59;;;-5.05;nan
69982;BME280;57319;56.274;43.980;2022-12-18T00:13:36;99655.00;;;-5.02;nan
69982;BME280;57319;56.274;43.980;2022-12-18T00:16:04;99651.72;;;-5.01;nan
69982;BME280;57319;56.274;43.980;2022-12-18T00:18:30;99640.91;;;-5.00;nan
69982;BME280;57319;56.274;43.980;2022-12-18T00:20:59;99628.91;;;-5.05;nan
69982;BME280;57319;56.274;43.980;2022-12-18T00:23:25;99615.41;;;-5.07;nan
69982;BME280;57319;56.274;43.980;2022-12-18T00:25:51;99615.84;;;-5.16;nan
69982;BME280;57319;56.274;43.980;2022-12-18T00:28:17;99610.69;;;-5.19;nan
69982;BME280;57319;56.274;43.980;2022-12-18T00:30:42;99596.75;;;-5.13;nan
69982;BME280;57319;56.274;43.980;2022-12-18T00:33:08;99580.84;;;-5.13;nan
69982;BME280;57319;56.274;43.980;2022-12-18T00:35:33;99573.25;;;-5.15;nan
69982;BME280;57319;56.274;43.980;2022-12-18T00:37:59;99558.47;;;-5.08;nan
69982;BME280;57319;56.274;43.980;2022-12-18T00:40:24;99559.28;;;-5.09;nan
69982;BME280;57319;56.274;43.980;2022-12-18T00:42:50;99547.94;;;-5.01;nan
69982;BME280;57319;56.274;43.980;2022-12-18T00:45:26;99534.81;;;-5.14;nan
69982;BME280;57319;56.274;43.980;2022-12-18T00:47:53;99522.75;;;-5.21;nan
69982;BME280;57319;56.274;43.980;2022-12-18T00:50:20;99513.59;;;-5.20;nan
69982;BME280;57319;56.274;43.980;2022-12-18T00:52:45;99502.56;;;-5.24;nan
69982;BME280;57319;56.274;43.980;2022-12-18T00:55:11;99482.59;;;-5.21;nan
69982;BME280;57319;56.274;43.980;2022-12-18T00:57:39;99481.75;;;-5.21;nan
69982;BME280;57319;56.274;43.980;2022-12-18T01:00:06;99462.63;;;-5.19;nan
69982;BME280;57319;56.274;43.980;2022-12-18T01:02:32;99459.25;;;-5.20;nan
69982;BME280;57319;56.274;43.980;2022-12-18T01:04:58;99467.00;;;-5.15;nan
69982;BME280;57319;56.274;43.980;2022-12-18T01:07:23;99455.22;;;-5.16;nan
69982;BME280;57319;56.274;43.980;2022-12-18T01:09:49;99447.19;;;-5.09;nan
69982;BME280;57319;56.274;43.980;2022-12-18T01:12:15;99428.91;;;-5.06;nan
69982;BME280;57319;56.274;43.980;2022-12-18T01:14:41;99436.28;;;-5.09;nan
69982;BME280;57319;56.274;43.980;2022-12-18T01:17:06;99433.91;;;-5.06;nan
69982;BME280;57319;56.274;43.980;2022-12-18T01:19:32;99427.41;;;-5.03;nan
69982;BME280;57319;56.274;43.980;2022-12-18T01:21:58;99414.97;;;-5.00;nan
69982;BME280;57319;56.274;43.980;2022-12-18T01:24:24;99413.44;;;-4.96;nan
69982;BME280;57319;56.274;43.980;2022-12-18T01:26:50;99416.75;;;-4.97;nan
69982;BME280;57319;56.274;43.980;2022-12-18T01:29:16;99409.16;;;-4.99;nan
69982;BME280;57319;56.274;43.980;2022-12-18T01:31:41;99429.03;;;-5.03;nan
69982;BME280;57319;56.274;43.980;2022-12-18T01:34:08;99431.53;;;-5.03;nan
69982;BME280;57319;56.274;43.980;2022-12-18T01:36:35;99433.31;;;-5.01;nan
69982;BME280;57319;56.274;43.980;2022-12-18T01:39:04;99437.56;;;-5.00;nan
69982;BME280;57319;56.274;43.980;2022-12-18T01:41:32;99430.28;;;-4.94;nan
69982;BME280;57319;56.274;43.980;2022-12-18T01:47:44;99388.25;;;-4.98;nan
69982;BME280;57319;56.274;43.980;2022-12-18T01:52:53;99364.88;;;-4.97;nan
69982;BME280;57319;56.274;43.980;2022-12-18T01:55:21;99344.63;;;-5.01;nan
69982;BME280;57319;56.274;43.980;2022-12-18T01:57:49;99336.22;;;-5.02;nan
69982;BME280;57319;56.274;43.980;2022-12-18T02:00:19;99330.00;;;-5.10;nan
69982;BME280;57319;56.274;43.980;2022-12-18T02:02:46;99305.91;;;-5.06;nan
69982;BME280;57319;56.274;43.980;2022-12-18T02:05:16;99294.09;;;-5.09;nan
69982;BME280;57319;56.274;43.980;2022-12-18T02:10:54;99276.84;;;-5.01;nan
69982;BME280;57319;56.274;43.980;2022-12-18T02:19:03;99268.38;;;-5.03;nan
69982;BME280;57319;56.274;43.980;2022-12-18T02:21:49;99281.81;;;-5.03;nan
69982;BME280;57319;56.274;43.980;2022-12-18T02:24:29;99280.63;;;-5.11;nan
69982;BME280;57319;56.274;43.980;2022-12-18T02:27:03;99296.47;;;-5.12;nan
69982;BME280;57319;56.274;43.980;2022-12-18T02:29:44;99290.66;;;-5.11;nan
69982;BME280;57319;56.274;43.980;2022-12-18T02:32:40;99270.78;;;-5.06;nan
69982;BME280;57319;56.274;43.980;2022-12-18T02:35:13;99242.44;;;-5.04;nan
69982;BME280;57319;56.274;43.980;2022-12-18T02:37:41;99212.44;;;-5.01;nan
69982;BME280;57319;56.274;43.980;2022-12-18T02:40:09;99194.13;;;-4.98;nan
69982;BME280;57319;56.274;43.980;2022-12-18T02:42:36;99173.00;;;-5.03;nan
69982;BME280;57319;56.274;43.980;2022-12-18T02:45:02;99145.66;;;-4.97;nan
69982;BME280;57319;56.274;43.980;2022-12-18T02:47:34;99110.50;;;-4.97;nan
69982;BME280;57319;56.274;43.980;2022-12-18T02:50:22;99118.81;;;-4.98;nan
69982;BME280;57319;56.274;43.980;2022-12-18T02:53:20;99102.72;;;-5.03;nan
69982;BME280;57319;56.274;43.980;2022-12-18T03:01:30;99045.03;;;-5.02;nan
69982;BME280;57319;56.274;43.980;2022-12-18T03:04:02;99026.34;;;-5.10;nan
69982;BME280;57319;56.274;43.980;2022-12-18T03:06:40;99003.53;;;-5.16;nan
69982;BME280;57319;56.274;43.980;2022-12-18T03:09:21;98990.78;;;-5.21;nan
69982;BME280;57319;56.274;43.980;2022-12-18T03:11:56;98972.38;;;-5.21;nan
69982;BME280;57319;56.274;43.980;2022-12-18T03:14:42;98963.19;;;-5.21;nan
69982;BME280;57319;56.274;43.980;2022-12-18T03:17:14;98964.75;;;-5.24;nan
69982;BME280;57319;56.274;43.980;2022-12-18T03:19:43;98966.53;;;-5.22;nan
69982;BME280;57319;56.274;43.980;2022-12-18T03:22:13;98950.63;;;-5.21;nan
69982;BME280;57319;56.274;43.980;2022-12-18T03:24:39;98955.75;;;-5.19;nan
69982;BME280;57319;56.274;43.980;2022-12-18T03:27:09;98972.00;;;-5.09;nan
69982;BME280;57319;56.274;43.980;2022-12-18T03:29:46;98986.19;;;-5.10;nan
69982;BME280;57319;56.274;43.980;2022-12-18T03:32:24;99006.25;;;-5.10;nan
69982;BME280;57319;56.274;43.980;2022-12-18T03:34:53;99003.06;;;-5.06;nan
69982;BME280;57319;56.274;43.980;2022-12-18T03:37:22;98995.66;;;-5.03;nan
69982;BME280;57319;56.274;43.980;2022-12-18T03:39:48;98999.91;;;-5.00;nan
69982;BME280;57319;56.274;43.980;2022-12-18T03:42:32;99000.69;;;-5.03;nan
69982;BME280;57319;56.274;43.980;2022-12-18T03:45:28;98996.72;;;-4.96;nan
69982;BME280;57319;56.274;43.980;2022-12-18T03:48:13;98979.09;;;-4.98;nan
69982;BME280;57319;56.274;43.980;2022-12-18T03:51:04;98978.94;;;-5.02;nan
69982;BME280;57319;56.274;43.980;2022-12-18T03:53:55;98963.16;;;-5.00;nan
69982;BME280;57319;56.274;43.980;2022-12-18T03:56:25;98953.94;;;-4.99;nan
69982;BME280;57319;56.274;43.980;2022-12-18T03:58:52;98941.28;;;-5.02;nan
69982;BME280;57319;56.274;43.980;2022-12-18T04:01:23;98952.91;;;-5.04;nan
69982;BME280;57319;56.274;43.980;2022-12-18T04:03:51;98944.53;;;-5.05;nan
69982;BME280;57319;56.274;43.980;2022-12-18T04:06:18;98940.50;;;-5.01;nan
69982;BME280;57319;56.274;43.980;2022-12-18T04:08:45;98938.94;;;-4.98;nan
69982;BME280;57319;56.274;43.980;2022-12-18T04:11:11;98941.44;;;-4.98;nan
69982;BME280;57319;56.274;43.980;2022-12-18T04:13:37;98927.41;;;-4.92;nan
69982;BME280;57319;56.274;43.980;2022-12-18T04:16:04;98931.81;;;-4.87;nan
69982;BME280;57319;56.274;43.980;2022-12-18T04:18:30;98920.19;;;-4.85;nan
69982;BME280;57319;56.274;43.980;2022-12-18T04:20:55;98916.22;;;-4.78;nan
69982;BME280;57319;56.274;43.980;2022-12-18T04:23:21;98920.31;;;-4.80;nan
69982;BME280;57319;56.274;43.980;2022-12-18T04:25:47;98914.31;;;-4.84;nan
69982;BME280;57319;56.274;43.980;2022-12-18T04:28:13;98909.25;;;-4.85;nan
69982;BME280;57319;56.274;43.980;2022-12-18T04:30:38;98910.19;;;-4.83;nan
69982;BME280;57319;56.274;43.980;2022-12-18T04:33:08;98908.63;;;-4.80;nan
69982;BME280;57319;56.274;43.980;2022-12-18T04:35:34;98901.34;;;-4.72;nan
69982;BME280;57319;56.274;43.980;2022-12-18T04:37:59;98898.16;;;-4.68;nan
69982;BME280;57319;56.274;43.980;2022-12-18T04:40:25;98889.28;;;-4.58;nan
69982;BME280;57319;56.274;43.980;2022-12-18T04:42:51;98880.72;;;-4.63;nan
69982;BME280;57319;56.274;43.980;2022-12-18T04:45:16;98876.75;;;-4.56;nan
69982;BME280;57319;56.274;43.980;2022-12-18T04:47:42;98864.25;;;-4.55;nan
69982;BME280;57319;56.274;43.980;2022-12-18T04:50:08;98871.91;;;-4.52;nan
69982;BME280;57319;56.274;43.980;2022-12-18T04:52:34;98876.75;;;-4.56;nan
69982;BME280;57319;56.274;43.980;2022-12-18T04:54:59;98873.78;;;-4.46;nan
69982;BME280;57319;56.274;43.980;2022-12-18T04:57:25;98872.81;;;-4.50;nan
69982;BME280;57319;56.274;43.980;2022-12-18T04:59:51;98861.91;;;-4.50;nan
69982;BME280;57319;56.274;43.980;2022-12-18T05:02:16;98870.25;;;-4.51;nan
69982;BME280;57319;56.274;43.980;2022-12-18T05:04:42;98858.03;;;-4.40;nan
69982;BME280;57319;56.274;43.980;2022-12-18T05:07:08;98853.16;;;-4.36;nan
69982;BME280;57319;56.274;43.980;2022-12-18T05:09:33;98851.25;;;-4.43;nan
69982;BME280;57319;56.274;43.980;2022-12-18T05:11:59;98852.31;;;-4.36;nan
69982;BME280;57319;56.274;43.980;2022-12-18T05:14:24;98848.13;;;-4.36;nan
69982;BME280;57319;56.274;43.980;2022-12-18T05:16:50;98842.31;;;-4.35;nan
69982;BME280;57319;56.274;43.980;2022-12-18T05:19:16;98844.13;;;-4.31;nan
69982;BME280;57319;56.274;43.980;2022-12-18T05:21:41;98844.88;;;-4.33;nan
69982;BME280;57319;56.274;43.980;2022-12-18T05:24:07;98846.75;;;-4.26;nan
69982;BME280;57319;56.274;43.980;2022-12-18T05:26:33;98846.66;;;-4.29;nan
69982;BME280;57319;56.274;43.980;2022-12-18T05:28:58;98843.28;;;-4.31;nan
69982;BME280;57319;56.274;43.980;2022-12-18T05:31:24;98828.25;;;-4.30;nan
69982;BME280;57319;56.274;43.980;2022-12-18T05:33:49;98829.28;;;-4.23;nan
69982;BME280;57319;56.274;43.980;2022-12-18T05:36:15;98818.41;;;-4.22;nan
69982;BME280;57319;56.274;43.980;2022-12-18T05:38:41;98816.16;;;-4.14;nan
69982;BME280;57319;56.274;43.980;2022-12-18T05:41:07;98804.25;;;-4.20;nan
69982;BME280;57319;56.274;43.980;2022-12-18T05:43:35;98795.00;;;-4.21;nan
69982;BME280;57319;56.274;43.980;2022-12-18T05:46:08;98805.97;;;-4.19;nan
69982;BME280;57319;56.274;43.980;2022-12-18T05:48:34;98799.88;;;-4.26;nan
69982;BME280;57319;56.274;43.980;2022-12-18T05:51:06;98809.16;;;-4.24;nan
69982;BME280;57319;56.274;43.980;2022-12-18T05:53:32;98806.84;;;-4.17;nan
69982;BME280;57319;56.274;43.980;2022-12-18T05:56:00;98814.38;;;-4.17;nan
69982;BME280;57319;56.274;43.980;2022-12-18T05:58:27;98809.53;;;-4.12;nan
69982;BME280;57319;56.274;43.980;2022-12-18T06:00:52;98799.25;;;-4.18;nan
69982;BME280;57319;56.274;43.980;2022-12-18T06:03:18;98808.56;;;-4.16;nan
69982;BME280;57319;56.274;43.980;2022-12-18T06:05:45;98796.63;;;-4.23;nan
69982;BME280;57319;56.274;43.980;2022-12-18T06:08:11;98795.91;;;-4.19;nan
69982;BME280;57319;56.274;43.980;2022-12-18T06:10:37;98795.25;;;-4.13;nan
69982;BME280;57319;56.274;43.980;2022-12-18T06:13:04;98788.00;;;-4.04;nan
69982;BME280;57319;56.274;43.980;2022-12-18T06:15:30;98778.81;;;-4.02;nan
69982;BME280;57319;56.274;43.980;2022-12-18T06:17:55;98776.31;;;-4.02;nan
69982;BME280;57319;56.274;43.980;2022-12-18T06:20:21;98778.91;;;-3.99;nan
69982;BME280;57319;56.274;43.980;2022-12-18T06:22:47;98784.22;;;-3.89;nan
69982;BME280;57319;56.274;43.980;2022-12-18T06:25:13;98784.97;;;-3.92;nan
69982;BME280;57319;56.274;43.980;2022-12-18T06:27:39;98781.63;;;-3.93;nan
69982;BME280;57319;56.274;43.980;2022-12-18T06:30:05;98783.88;;;-4.00;nan
69982;BME280;57319;56.274;43.980;2022-12-18T06:32:32;98780.03;;;-3.89;nan
69982;BME280;57319;56.274;43.980;2022-12-18T06:34:58;98766.81;;;-3.83;nan
69982;BME280;57319;56.274;43.980;2022-12-18T06:37:24;98763.56;;;-3.79;nan
69982;BME280;57319;56.274;43.980;2022-12-18T06:39:52;98755.94;;;-3.81;nan
69982;BME280;57319;56.274;43.980;2022-12-18T06:42:17;98756.03;;;-3.79;nan
69982;BME280;57319;56.274;43.980;2022-12-18T06:44:43;98748.38;;;-3.82;nan
69982;BME280;57319;56.274;43.980;2022-12-18T06:47:09;98758.53;;;-3.79;nan
69982;BME280;57319;56.274;43.980;2022-12-18T06:49:34;98748.56;;;-3.76;nan
69982;BME280;57319;56.274;43.980;2022-12-18T06:52:00;98734.38;;;-3.72;nan
69982;BME280;57319;56.274;43.980;2022-12-18T06:54:26;98731.03;;;-3.73;nan
69982;BME280;57319;56.274;43.980;2022-12-18T06:56:51;98729.53;;;-3.66;nan
69982;BME280;57319;56.274;43.980;2022-12-18T06:59:17;98727.75;;;-3.70;nan
69982;BME280;57319;56.274;43.980;2022-12-18T07:01:43;98722.66;;;-3.73;nan
69982;BME280;57319;56.274;43.980;2022-12-18T07:04:08;98721.91;;;-3.69;nan
69982;BME280;57319;56.274;43.980;2022-12-18T07:06:34;98710.25;;;-3.66;nan
69982;BME280;57319;56.274;43.980;2022-12-18T07:08:59;98711.88;;;-3.69;nan
69982;BME280;57319;56.274;43.980;2022-12-18T07:11:25;98705.09;;;-3.72;nan
69982;BME280;57319;56.274;43.980;2022-12-18T07:13:52;98711.97;;;-3.65;nan
69982;BME280;57319;56.274;43.980;2022-12-18T07:16:19;98711.97;;;-3.65;nan
69982;BME280;57319;56.274;43.980;2022-12-18T07:18:45;98701.19;;;-3.61;nan
69982;BME280;57319;56.274;43.980;2022-12-18T07:21:14;98695.31;;;-3.61;nan
69982;BME280;57319;56.274;43.980;2022-12-18T07:23:40;98694.44;;;-3.62;nan
69982;BME280;57319;56.274;43.980;2022-12-18T07:26:11;98697.56;;;-3.70;nan
69982;BME280;57319;56.274;43.980;2022-12-18T07:28:38;98695.88;;;-3.71;nan
69982;BME280;57319;56.274;43.980;2022-12-18T07:31:09;98674.00;;;-3.74;nan
69982;BME280;57319;56.274;43.980;2022-12-18T07:33:35;98676.53;;;-3.72;nan
69982;BME280;57319;56.274;43.980;2022-12-18T07:36:02;98679.19;;;-3.68;nan
69982;BME280;57319;56.274;43.980;2022-12-18T07:38:29;98685.66;;;-3.78;nan
69982;BME280;57319;56.274;43.980;2022-12-18T07:40:54;98682.41;;;-3.73;nan
69982;BME280;57319;56.274;43.980;2022-12-18T07:43:25;98679.63;;;-3.83;nan
69982;BME280;57319;56.274;43.980;2022-12-18T07:45:50;98688.22;;;-3.76;nan
69982;BME280;57319;56.274;43.980;2022-12-18T07:48:16;98673.91;;;-3.77;nan
69982;BME280;57319;56.274;43.980;2022-12-18T07:50:42;98670.53;;;-3.79;nan
69982;BME280;57319;56.274;43.980;2022-12-18T07:53:07;98668.88;;;-3.77;nan
69982;BME280;57319;56.274;43.980;2022-12-18T07:55:33;98664.66;;;-3.78;nan
69982;BME280;57319;56.274;43.980;2022-12-18T07:58:03;98660.63;;;-3.73;nan
69982;BME280;57319;56.274;43.980;2022-12-18T08:00:29;98642.16;;;-3.73;nan
69982;BME280;57319;56.274;43.980;2022-12-18T08:02:54;98647.34;;;-3.67;nan
69982;BME280;57319;56.274;43.980;2022-12-18T08:05:20;98651.78;;;-3.59;nan
69982;BME280;57319;56.274;43.980;2022-12-18T08:07:46;98659.34;;;-3.59;nan
69982;BME280;57319;56.274;43.980;2022-12-18T08:10:12;98654.16;;;-3.63;nan
69982;BME280;57319;56.274;43.980;2022-12-18T08:12:39;98645.88;;;-3.59;nan
69982;BME280;57319;56.274;43.980;2022-12-18T08:15:05;98633.97;;;-3.66;nan
69982;BME280;57319;56.274;43.980;2022-12-18T08:17:31;98646.66;;;-3.62;nan
69982;BME280;57319;56.274;43.980;2022-12-18T08:19:57;98650.91;;;-3.59;nan
69982;BME280;57319;56.274;43.980;2022-12-18T08:22:22;98645.16;;;-3.55;nan
69982;BME280;57319;56.274;43.980;2022-12-18T08:24:48;98651.13;;;-3.51;nan
69982;BME280;57319;56.274;43.980;2022-12-18T08:27:14;98657.91;;;-3.49;nan
69982;BME280;57319;56.274;43.980;2022-12-18T08:29:39;98659.13;;;-3.66;nan
69982;BME280;57319;56.274;43.980;2022-12-18T08:32:05;98659.97;;;-3.66;nan
69982;BME280;57319;56.274;43.980;2022-12-18T08:34:31;98655.81;;;-3.65;nan
69982;BME280;57319;56.274;43.980;2022-12-18T08:36:56;98676.81;;;-3.63;nan
69982;BME280;57319;56.274;43.980;2022-12-18T08:39:22;98675.16;;;-3.63;nan
69982;BME280;57319;56.274;43.980;2022-12-18T08:41:47;98678.50;;;-3.62;nan
69982;BME280;57319;56.274;43.980;2022-12-18T08:44:33;98683.66;;;-3.58;nan
69982;BME280;57319;56.274;43.980;2022-12-18T08:47:05;98678.41;;;-3.67;nan
69982;BME280;57319;56.274;43.980;2022-12-18T08:49:32;98683.50;;;-3.64;nan
69982;BME280;57319;56.274;43.980;2022-12-18T08:51:57;98680.19;;;-3.63;nan
69982;BME280;57319;56.274;43.980;2022-12-18T08:54:24;98675.06;;;-3.66;nan
69982;BME280;57319;56.274;43.980;2022-12-18T08:56:49;98679.25;;;-3.66;nan
69982;BME280;57319;56.274;43.980;2022-12-18T08:59:16;98684.28;;;-3.66;nan
69982;BME280;57319;56.274;43.980;2022-12-18T09:01:42;98677.72;;;-3.61;nan
69982;BME280;57319;56.274;43.980;2022-12-18T09:04:09;98681.09;;;-3.59;nan
69982;BME280;57319;56.274;43.980;2022-12-18T09:06:35;98684.63;;;-3.52;nan
69982;BME280;57319;56.274;43.980;2022-12-18T09:09:00;98686.28;;;-3.54;nan
69982;BME280;57319;56.274;43.980;2022-12-18T09:11:27;98688.69;;;-3.58;nan
69982;BME280;57319;56.274;43.980;2022-12-18T09:13:54;98686.16;;;-3.58;nan
69982;BME280;57319;56.274;43.980;2022-12-18T09:16:21;98692.81;;;-3.61;nan
69982;BME280;57319;56.274;43.980;2022-12-18T09:18:47;98687.09;;;-3.55;nan
69982;BME280;57319;56.274;43.980;2022-12-18T09:21:16;98683.69;;;-3.56;nan
69982;BME280;57319;56.274;43.980;2022-12-18T09:23:42;98692.88;;;-3.58;nan
69982;BME280;57319;56.274;43.980;2022-12-18T09:26:08;98684.38;;;-3.62;nan
69982;BME280;57319;56.274;43.980;2022-12-18T09:28:34;98680.19;;;-3.63;nan
69982;BME280;57319;56.274;43.980;2022-12-18T09:31:04;98687.84;;;-3.58;nan
69982;BME280;57319;56.274;43.980;2022-12-18T09:33:30;98687.00;;;-3.59;nan
69982;BME280;57319;56.274;43.980;2022-12-18T09:35:56;98683.66;;;-3.58;nan
69982;BME280;57319;56.274;43.980;2022-12-18T09:38:21;98672.56;;;-3.64;nan
69982;BME280;57319;56.274;43.980;2022-12-18T09:40:55;98684.50;;;-3.59;nan
69982;BME280;57319;56.274;43.980;2022-12-18T09:43:28;98683.69;;;-3.56;nan
69982;BME280;57319;56.274;43.980;2022-12-18T09:46:01;98683.50;;;-3.64;nan
69982;BME280;57319;56.274;43.980;2022-12-18T09:48:34;98689.19;;;-3.71;nan
69982;BME280;57319;56.274;43.980;2022-12-18T09:51:30;98690.75;;;-3.75;nan
69982;BME280;57319;56.274;43.980;2022-12-18T09:54:04;98684.97;;;-3.72;nan
69982;BME280;57319;56.274;43.980;2022-12-18T09:56:35;98689.25;;;-3.68;nan
69982;BME280;57319;56.274;43.980;2022-12-18T09:59:04;98678.09;;;-3.78;nan
69982;BME280;57319;56.274;43.980;2022-12-18T10:01:31;98690.56;;;-3.81;nan
69982;BME280;57319;56.274;43.980;2022-12-18T10:03:58;98689.69;;;-3.83;nan
69982;BME280;57319;56.274;43.980;2022-12-18T10:06:42;98700.47;;;-3.87;nan
69982;BME280;57319;56.274;43.980;2022-12-18T10:12:04;98690.47;;;-3.85;nan
69982;BME280;57319;56.274;43.980;2022-12-18T10:14:46;98688.78;;;-3.85;nan
69982;BME280;57319;56.274;43.980;2022-12-18T10:19:49;98695.59;;;-3.81;nan
69982;BME280;57319;56.274;43.980;2022-12-18T10:27:48;98722.19;;;-3.89;nan
69982;BME280;57319;56.274;43.980;2022-12-18T10:30:19;98728.81;;;-3.93;nan
69982;BME280;57319;56.274;43.980;2022-12-18T10:32:45;98729.34;;;-4.03;nan
69982;BME280;57319;56.274;43.980;2022-12-18T10:35:25;98730.06;;;-4.07;nan
69982;BME280;57319;56.274;43.980;2022-12-18T10:40:27;98740.16;;;-4.05;nan
69982;BME280;57319;56.274;43.980;2022-12-18T10:43:12;98744.38;;;-4.04;nan
69982;BME280;57319;56.274;43.980;2022-12-18T10:45:40;98753.16;;;-4.20;nan
69982;BME280;57319;56.274;43.980;2022-12-18T10:48:26;98749.69;;;-4.24;nan
69982;BME280;57319;56.274;43.980;2022-12-18T10:50:53;98756.16;;;-4.31;nan
69982;BME280;57319;56.274;43.980;2022-12-18T10:53:23;98759.59;;;-4.29;nan
69982;BME280;57319;56.274;43.980;2022-12-18T10:55:49;98747.97;;;-4.25;nan
69982;BME280;57319;56.274;43.980;2022-12-18T10:58:31;98758.75;;;-4.28;nan
69982;BME280;57319;56.274;43.980;2022-12-18T11:01:05;98760.53;;;-4.25;nan
69982;BME280;57319;56.274;43.980;2022-12-18T11:08:34;98745.38;;;-4.28;nan
69982;BME280;57319;56.274;43.980;2022-12-18T11:11:01;98740.28;;;-4.30;nan
69982;BME280;57319;56.274;43.980;2022-12-18T11:13:29;98756.94;;;-4.33;nan
69982;BME280;57319;56.274;43.980;2022-12-18T11:15:55;98770.94;;;-4.40;nan
69982;BME280;57319;56.274;43.980;2022-12-18T11:18:39;98768.41;;;-4.41;nan
69982;BME280;57319;56.274;43.980;2022-12-18T11:21:09;98774.09;;;-4.47;nan
69982;BME280;57319;56.274;43.980;2022-12-18T11:23:36;98768.72;;;-4.58;nan
69982;BME280;57319;56.274;43.980;2022-12-18T11:26:04;98775.31;;;-4.62;nan
69982;BME280;57319;56.274;43.980;2022-12-18T11:28:41;98786.13;;;-4.64;nan
69982;BME280;57319;56.274;43.980;2022-12-18T11:33:44;98795.34;;;-4.89;nan
69982;BME280;57319;56.274;43.980;2022-12-18T11:36:12;98799.53;;;-4.88;nan
69982;BME280;57319;56.274;43.980;2022-12-18T11:38:40;98793.59;;;-4.91;nan
69982;BME280;57319;56.274;43.980;2022-12-18T11:41:19;98810.22;;;-4.94;nan
69982;BME280;57319;56.274;43.980;2022-12-18T11:44:01;98808.19;;;-5.05;nan
69982;BME280;57319;56.274;43.980;2022-12-18T11:46:39;98808.13;;;-5.07;nan
69982;BME280;57319;56.274;43.980;2022-12-18T11:49:24;98825.69;;;-5.07;nan
69982;BME280;57319;56.274;43.980;2022-12-18T11:51:58;98828.25;;;-5.05;nan
69982;BME280;57319;56.274;43.980;2022-12-18T11:54:26;98831.28;;;-5.14;nan
69982;BME280;57319;56.274;43.980;2022-12-18T11:57:01;98838.84;;;-5.13;nan
69982;BME280;57319;56.274;43.980;2022-12-18T11:59:40;98842.97;;;-5.15;nan
69982;BME280;57319;56.274;43.980;2022-12-18T12:02:26;98843.56;;;-5.22;nan
69982;BME280;57319;56.274;43.980;2022-12-18T12:16:45;98872.94;;;-5.42;nan
69982;BME280;57319;56.274;43.980;2022-12-18T12:32:23;98910.69;;;-5.62;nan
69982;BME280;57319;56.274;43.980;2022-12-18T12:35:12;98908.16;;;-5.62;nan
69982;BME280;57319;56.274;43.980;2022-12-18T12:37:47;98922.44;;;-5.60;nan
69982;BME280;57319;56.274;43.980;2022-12-18T12:40:19;98912.31;;;-5.62;nan
69982;BME280;57319;56.274;43.980;2022-12-18T12:42:56;98931.53;;;-5.63;nan
69982;BME280;57319;56.274;43.980;2022-12-18T12:48:17;98955.34;;;-5.74;nan
69982;BME280;57319;56.274;43.980;2022-12-18T12:50:47;98964.63;;;-5.71;nan
69982;BME280;57319;56.274;43.980;2022-12-18T12:53:23;98971.22;;;-5.73;nan
69982;BME280;57319;56.274;43.980;2022-12-18T12:55:52;98979.47;;;-5.76;nan
69982;BME280;57319;56.274;43.980;2022-12-18T12:58:49;98964.69;;;-5.70;nan
69982;BME280;57319;56.274;43.980;2022-12-18T13:06:55;98983.97;;;-5.69;nan
69982;BME280;57319;56.274;43.980;2022-12-18T13:09:24;98993.06;;;-5.71;nan
69982;BME280;57319;56.274;43.980;2022-12-18T13:11:50;99006.09;;;-5.80;nan
69982;BME280;57319;56.274;43.980;2022-12-18T13:14:39;99009.78;;;-5.91;nan
69982;BME280;57319;56.274;43.980;2022-12-18T13:19:50;99024.34;;;-6.03;nan
69982;BME280;57319;56.274;43.980;2022-12-18T13:22:24;99030.78;;;-6.10;nan
69982;BME280;57319;56.274;43.980;2022-12-18T13:24:53;99035.03;;;-6.07;nan
69982;BME280;57319;56.274;43.980;2022-12-18T13:27:45;99036.81;;;-6.05;nan
69982;BME280;57319;56.274;43.980;2022-12-18T13:35:42;99028.59;;;-6.22;nan
69982;BME280;57319;56.274;43.980;2022-12-18T13:41:02;99056.81;;;-6.26;nan
69982;BME280;57319;56.274;43.980;2022-12-18T13:49:23;99065.56;;;-6.36;nan
69982;BME280;57319;56.274;43.980;2022-12-18T13:51:54;99077.97;;;-6.39;nan
69982;BME280;57319;56.274;43.980;2022-12-18T13:54:42;99075.19;;;-6.45;nan
69982;BME280;57319;56.274;43.980;2022-12-18T13:57:43;99090.06;;;-6.48;nan
69982;BME280;57319;56.274;43.980;2022-12-18T14:00:29;99089.72;;;-6.56;nan
69982;BME280;57319;56.274;43.980;2022-12-18T14:02:56;99088.94;;;-6.55;nan
69982;BME280;57319;56.274;43.980;2022-12-18T14:07:52;99110.13;;;-6.48;nan
69982;BME280;57319;56.274;43.980;2022-12-18T14:10:19;99105.81;;;-6.51;nan
69982;BME280;57319;56.274;43.980;2022-12-18T14:12:50;99109.81;;;-6.54;nan
69982;BME280;57319;56.274;43.980;2022-12-18T14:17:54;99123.28;;;-6.52;nan
69982;BME280;57319;56.274;43.980;2022-12-18T14:20:21;99126.84;;;-6.47;nan
69982;BME280;57319;56.274;43.980;2022-12-18T14:22:48;99130.34;;;-6.43;nan
69982;BME280;57319;56.274;43.980;2022-12-18T14:25:20;99135.81;;;-6.52;nan
69982;BME280;57319;56.274;43.980;2022-12-18T14:27:50;99146.72;;;-6.50;nan
69982;BME280;57319;56.274;43.980;2022-12-18T14:30:32;99146.31;;;-6.41;nan
69982;BME280;57319;56.274;43.980;2022-12-18T14:35:30;99157.31;;;-6.38;nan
69982;BME280;57319;56.274;43.980;2022-12-18T14:38:24;99158.75;;;-6.43;nan
69982;BME280;57319;56.274;43.980;2022-12-18T14:41:05;99145.75;;;-6.54;nan
69982;BME280;57319;56.274;43.980;2022-12-18T14:43:36;99151.41;;;-6.58;nan
69982;BME280;57319;56.274;43.980;2022-12-18T14:46:03;99149.75;;;-6.57;nan
69982;BME280;57319;56.274;43.980;2022-12-18T14:51:06;99173.13;;;-6.57;nan
69982;BME280;57319;56.274;43.980;2022-12-18T14:53:36;99187.38;;;-6.56;nan
69982;BME280;57319;56.274;43.980;2022-12-18T14:56:13;99178.66;;;-6.64;nan
69982;BME280;57319;56.274;43.980;2022-12-18T14:58:45;99176.16;;;-6.64;nan
69982;BME280;57319;56.274;43.980;2022-12-18T15:01:21;99188.03;;;-6.60;nan
69982;BME280;57319;56.274;43.980;2022-12-18T15:03:48;99186.59;;;-6.55;nan
69982;BME280;57319;56.274;43.980;2022-12-18T15:06:37;99187.25;;;-6.59;nan